Time;durP1;ratioP1;P1;durP2;ratioP2;P2;SDS_P1;SDS_P2;PMS_P1;PMS_P2;Temp;Humidity;BMP_temperature;BMP_pressure;BME280_temperature;BME280_humidity;BME280_pressure;Samples;Min_cycle;Max_cycle;Signal;HPM_P1;HPM_P2
2020/12/06 00:01:25;;;;;;;14.20;11.27;;;15.90;47.10;;;;;;4980551;28;20206;-58
2020/12/06 00:03:50;;;;;;;14.00;10.87;;;15.90;46.90;;;;;;4979925;28;20188;-58
2020/12/06 00:06:22;;;;;;;14.00;10.20;;;15.80;47.10;;;;;;4980563;28;20225;-58
2020/12/06 00:08:49;;;;;;;13.60;10.63;;;15.80;46.90;;;;;;4980167;28;20255;-59
2020/12/06 00:11:16;;;;;;;11.37;9.53;;;15.80;47.00;;;;;;4980371;28;20190;-58
2020/12/06 00:13:42;;;;;;;14.97;11.33;;;15.80;47.10;;;;;;4978519;28;20196;-58
2020/12/06 00:16:15;;;;;;;14.17;11.33;;;15.80;47.00;;;;;;4980572;28;20283;-59
2020/12/06 00:18:43;;;;;;;11.63;9.73;;;15.80;46.80;;;;;;4980518;28;20667;-58
2020/12/06 00:21:18;;;;;;;13.10;9.67;;;15.80;47.10;;;;;;4980003;28;20660;-59
2020/12/06 00:23:44;;;;;;;13.23;10.50;;;15.80;46.80;;;;;;4980464;28;20707;-58
2020/12/06 00:26:11;;;;;;;13.47;10.47;;;15.70;46.40;;;;;;4979889;28;20195;-58
2020/12/06 00:28:37;;;;;;;12.50;9.80;;;15.70;47.00;;;;;;4980409;28;20282;-59
2020/12/06 00:31:03;;;;;;;12.53;10.10;;;15.70;47.00;;;;;;4979733;28;20643;-57
2020/12/06 00:33:29;;;;;;;15.03;9.67;;;15.80;46.80;;;;;;4979972;28;20202;-58
2020/12/06 00:35:55;;;;;;;12.60;9.20;;;15.70;47.10;;;;;;4979869;28;20215;-58
2020/12/06 00:38:21;;;;;;;14.33;9.93;;;15.70;47.10;;;;;;4979658;28;20208;-58
2020/12/06 00:40:46;;;;;;;12.43;9.60;;;15.70;47.00;;;;;;4979942;28;20190;-59
2020/12/06 00:43:12;;;;;;;11.97;9.33;;;15.70;47.00;;;;;;4979762;28;20237;-58
2020/12/06 00:45:39;;;;;;;13.57;10.03;;;15.70;47.20;;;;;;4979789;28;20209;-58
2020/12/06 00:48:05;;;;;;;11.80;9.60;;;15.70;47.00;;;;;;4978219;28;20294;-59
2020/12/06 00:50:32;;;;;;;11.93;9.70;;;15.70;47.00;;;;;;4977734;28;20250;-58
2020/12/06 00:52:57;;;;;;;12.53;9.97;;;15.70;47.20;;;;;;4977812;28;20207;-58
2020/12/06 00:55:23;;;;;;;12.33;10.00;;;15.70;47.10;;;;;;4977240;28;20953;-57
2020/12/06 00:57:49;;;;;;;13.53;10.10;;;15.70;47.20;;;;;;4979330;28;20204;-58
2020/12/06 01:00:15;;;;;;;12.83;10.33;;;15.70;47.20;;;;;;4978739;28;20195;-62
2020/12/06 01:02:41;;;;;;;13.20;10.53;;;15.70;47.10;;;;;;4979399;28;20189;-62
2020/12/06 01:05:07;;;;;;;12.77;9.67;;;15.70;47.30;;;;;;4978994;28;20774;-61
2020/12/06 01:07:39;;;;;;;13.63;9.90;;;15.70;47.40;;;;;;4979161;28;20702;-62
2020/12/06 01:10:07;;;;;;;11.30;9.40;;;15.70;47.30;;;;;;4979089;28;20565;-61
2020/12/06 01:12:33;;;;;;;12.23;9.83;;;15.70;47.30;;;;;;4977695;28;20750;-62
2020/12/06 01:14:59;;;;;;;12.23;9.80;;;15.70;47.30;;;;;;4979659;28;20210;-62
2020/12/06 01:17:25;;;;;;;11.47;9.23;;;15.70;47.40;;;;;;4979139;28;20192;-64
2020/12/06 01:19:50;;;;;;;12.63;9.67;;;15.70;47.30;;;;;;4978727;28;20279;-63
2020/12/06 01:22:16;;;;;;;11.60;8.97;;;15.60;47.30;;;;;;4978880;28;20715;-62
2020/12/06 01:24:42;;;;;;;13.50;10.47;;;15.60;47.40;;;;;;4978876;28;20228;-61
2020/12/06 01:27:07;;;;;;;14.37;10.13;;;15.60;47.50;;;;;;4978996;28;20243;-64
2020/12/06 01:29:33;;;;;;;13.03;9.77;;;15.60;47.40;;;;;;4978447;28;20214;-64
2020/12/06 01:31:59;;;;;;;11.97;9.53;;;15.60;47.50;;;;;;4978731;28;21073;-64
2020/12/06 01:34:25;;;;;;;12.40;9.60;;;15.60;47.60;;;;;;4978567;28;20214;-61
2020/12/06 01:36:51;;;;;;;12.60;10.07;;;15.60;47.70;;;;;;4978467;28;20365;-63
2020/12/06 01:39:21;;;;;;;10.70;8.90;;;15.60;47.50;;;;;;4978382;28;20201;-63
2020/12/06 01:41:47;;;;;;;11.53;9.40;;;15.60;47.50;;;;;;4978869;28;20201;-63
2020/12/06 01:44:13;;;;;;;11.50;9.63;;;15.60;47.70;;;;;;4979088;28;20195;-63
2020/12/06 01:46:39;;;;;;;14.43;10.17;;;15.60;47.70;;;;;;4978114;28;21097;-63
2020/12/06 01:49:06;;;;;;;12.77;9.90;;;15.60;47.60;;;;;;4981248;28;20240;-63
2020/12/06 01:51:33;;;;;;;13.00;10.07;;;15.60;47.80;;;;;;4981921;28;20201;-63
2020/12/06 01:53:59;;;;;;;12.60;9.57;;;15.60;47.70;;;;;;4982296;28;20225;-63
2020/12/06 01:56:25;;;;;;;12.53;9.03;;;15.60;47.80;;;;;;4981872;28;20290;-63
2020/12/06 01:58:51;;;;;;;11.27;8.10;;;15.50;47.60;;;;;;4981640;28;20204;-63
2020/12/06 02:01:16;;;;;;;11.63;8.13;;;15.60;47.80;;;;;;4982166;28;20301;-63
2020/12/06 02:03:42;;;;;;;12.63;8.63;;;15.60;47.80;;;;;;4981999;28;20185;-64
2020/12/06 02:06:08;;;;;;;11.40;7.90;;;15.60;47.70;;;;;;4981819;28;20188;-63
2020/12/06 02:08:35;;;;;;;13.07;8.13;;;15.60;47.70;;;;;;4981758;28;20650;-63
2020/12/06 02:11:01;;;;;;;11.43;8.17;;;15.60;47.70;;;;;;4981735;28;20201;-63
2020/12/06 02:13:27;;;;;;;12.90;8.17;;;15.60;47.60;;;;;;4980633;28;20250;-64
2020/12/06 02:15:54;;;;;;;12.23;8.57;;;15.50;47.60;;;;;;4981432;28;20206;-63
2020/12/06 02:18:21;;;;;;;11.87;8.30;;;15.60;47.50;;;;;;4981926;28;20212;-63
2020/12/06 02:20:47;;;;;;;11.90;8.43;;;15.60;47.60;;;;;;4981041;28;20182;-63
2020/12/06 02:23:13;;;;;;;12.50;8.37;;;15.50;47.60;;;;;;4981734;28;20209;-63
2020/12/06 02:25:40;;;;;;;13.60;9.00;;;15.50;47.60;;;;;;4981672;28;20727;-63
2020/12/06 02:28:07;;;;;;;13.40;9.23;;;15.50;47.60;;;;;;4981584;28;20224;-63
2020/12/06 02:30:34;;;;;;;12.40;7.90;;;15.50;47.60;;;;;;4981309;28;20192;-65
2020/12/06 02:33:03;;;;;;;13.83;9.03;;;15.50;47.70;;;;;;4981232;28;20212;-63
2020/12/06 02:35:29;;;;;;;12.73;8.50;;;15.50;47.60;;;;;;4981426;28;20214;-63
2020/12/06 02:37:55;;;;;;;11.67;7.97;;;15.50;47.60;;;;;;4980714;28;21073;-63
2020/12/06 02:40:20;;;;;;;12.90;8.63;;;15.50;47.90;;;;;;4980886;28;20352;-64
2020/12/06 02:42:46;;;;;;;12.57;7.37;;;15.50;47.80;;;;;;4980742;28;20600;-63
2020/12/06 02:45:12;;;;;;;13.67;9.27;;;15.50;47.90;;;;;;4980977;28;20633;-63
2020/12/06 02:47:37;;;;;;;12.30;8.47;;;15.50;47.80;;;;;;4980510;28;20218;-63
2020/12/06 02:50:04;;;;;;;13.60;8.60;;;15.50;47.80;;;;;;4980605;28;20199;-63
2020/12/06 02:52:30;;;;;;;14.67;10.37;;;15.40;47.80;;;;;;4981131;28;20738;-65
2020/12/06 02:54:56;;;;;;;14.70;9.13;;;15.40;47.70;;;;;;4979225;28;20217;-63
2020/12/06 02:57:22;;;;;;;13.00;8.77;;;15.50;47.90;;;;;;4980820;28;20907;-63
2020/12/06 02:59:47;;;;;;;12.53;8.50;;;15.40;47.90;;;;;;4979822;28;20216;-65
2020/12/06 03:02:13;;;;;;;13.80;8.50;;;15.40;47.90;;;;;;4980872;28;20187;-64
2020/12/06 03:04:39;;;;;;;13.57;8.80;;;15.50;47.80;;;;;;4981096;28;20714;-63
2020/12/06 03:07:04;;;;;;;13.77;8.90;;;15.40;47.90;;;;;;4980586;28;20194;-65
2020/12/06 03:09:30;;;;;;;12.97;8.70;;;15.40;47.80;;;;;;4980403;28;20244;-63
2020/12/06 03:11:56;;;;;;;14.47;9.43;;;15.40;47.90;;;;;;4979301;28;20195;-64
2020/12/06 03:14:21;;;;;;;13.57;9.13;;;15.40;48.00;;;;;;4980747;28;20389;-63
2020/12/06 03:16:47;;;;;;;13.70;9.63;;;15.40;47.90;;;;;;4980643;28;20223;-63
2020/12/06 03:19:13;;;;;;;12.33;8.33;;;15.40;48.00;;;;;;4979774;28;20213;-63
2020/12/06 03:21:38;;;;;;;12.90;8.93;;;15.40;48.00;;;;;;4979323;28;20676;-63
2020/12/06 03:24:04;;;;;;;15.67;10.40;;;15.40;48.10;;;;;;4981021;28;20221;-65
2020/12/06 03:26:29;;;;;;;14.67;9.87;;;15.40;48.10;;;;;;4983878;28;20723;-63
2020/12/06 03:28:55;;;;;;;12.23;9.40;;;15.30;48.10;;;;;;4983063;28;20207;-64
2020/12/06 03:31:21;;;;;;;13.33;9.47;;;15.30;48.00;;;;;;4983841;28;20180;-65
2020/12/06 03:33:47;;;;;;;14.23;9.53;;;15.30;48.20;;;;;;4983812;28;20269;-64
2020/12/06 03:36:12;;;;;;;14.23;9.70;;;15.30;48.00;;;;;;4981839;28;20204;-63
2020/12/06 03:38:38;;;;;;;13.73;9.97;;;15.40;48.10;;;;;;4983481;28;20897;-63
2020/12/06 03:41:04;;;;;;;17.07;9.60;;;15.30;48.10;;;;;;4983013;28;20190;-63
2020/12/06 03:43:29;;;;;;;15.13;9.90;;;15.30;48.00;;;;;;4983843;28;20194;-63
2020/12/06 03:45:55;;;;;;;15.00;9.53;;;15.40;48.10;;;;;;4983249;28;20197;-63
2020/12/06 03:48:21;;;;;;;14.27;9.70;;;15.30;48.00;;;;;;4983584;28;20598;-63
2020/12/06 03:50:46;;;;;;;14.77;9.80;;;15.30;48.00;;;;;;4983738;28;20736;-63
2020/12/06 03:53:12;;;;;;;14.80;9.73;;;15.30;48.00;;;;;;4983528;28;20196;-63
2020/12/06 03:55:37;;;;;;;14.60;10.13;;;15.30;48.00;;;;;;4983817;28;20321;-64
2020/12/06 03:58:07;;;;;;;15.87;9.10;;;15.40;48.10;;;;;;4983376;28;20288;-63
2020/12/06 04:00:35;;;;;;;16.10;9.80;;;15.40;48.10;;;;;;4983172;28;20273;-63
2020/12/06 04:03:02;;;;;;;17.20;10.00;;;15.40;48.10;;;;;;4980625;28;20183;-63
2020/12/06 04:05:28;;;;;;;15.27;9.10;;;15.40;48.10;;;;;;4977088;28;20199;-63
2020/12/06 04:07:53;;;;;;;14.13;9.60;;;15.40;48.70;;;;;;4983496;28;20293;-64
2020/12/06 04:10:19;;;;;;;14.93;10.27;;;15.40;48.10;;;;;;4982562;28;20790;-63
2020/12/06 04:12:45;;;;;;;12.63;9.03;;;15.40;48.00;;;;;;4981386;28;20709;-63
2020/12/06 04:15:12;;;;;;;14.73;10.47;;;15.30;48.20;;;;;;4982787;28;20241;-63
2020/12/06 04:17:38;;;;;;;14.43;9.70;;;15.40;48.10;;;;;;4983220;28;20765;-65
2020/12/06 04:20:05;;;;;;;13.70;9.13;;;15.30;48.10;;;;;;4982674;28;20190;-63
2020/12/06 04:22:30;;;;;;;14.73;9.50;;;15.40;48.10;;;;;;4982944;28;20244;-63
2020/12/06 04:24:56;;;;;;;12.93;9.27;;;15.40;48.10;;;;;;4983273;28;20605;-63
2020/12/06 04:27:22;;;;;;;13.43;9.07;;;15.40;48.20;;;;;;4982952;28;20195;-65
2020/12/06 04:29:48;;;;;;;13.93;9.37;;;15.30;48.20;;;;;;4982615;28;20241;-63
2020/12/06 04:32:13;;;;;;;13.97;8.63;;;15.30;48.20;;;;;;4974436;28;20967;-63
2020/12/06 04:34:39;;;;;;;16.23;9.10;;;15.30;48.20;;;;;;4982913;28;20222;-63
2020/12/06 04:37:06;;;;;;;14.53;9.50;;;15.30;48.30;;;;;;4981719;28;20903;-63
2020/12/06 04:39:33;;;;;;;12.87;9.13;;;15.30;48.20;;;;;;4982248;28;20274;-63
2020/12/06 04:42:00;;;;;;;12.43;7.97;;;15.30;48.30;;;;;;4974848;28;20182;-63
2020/12/06 04:44:26;;;;;;;14.33;8.87;;;15.30;48.30;;;;;;4982669;28;20284;-63
2020/12/06 04:46:59;;;;;;;14.67;9.50;;;15.30;48.40;;;;;;4982923;28;20193;-63
2020/12/06 04:49:43;;;;;;;15.77;9.50;;;15.20;48.30;;;;;;4982418;28;20311;-63
2020/12/06 04:52:21;;;;;;;14.97;9.80;;;15.20;48.40;;;;;;4982962;28;20261;-63
2020/12/06 04:54:57;;;;;;;13.77;9.10;;;15.20;48.50;;;;;;4982860;28;20210;-63
2020/12/06 04:57:26;;;;;;;13.73;8.57;;;15.20;48.60;;;;;;4975619;28;20187;-63
2020/12/06 05:00:00;;;;;;;15.00;10.40;;;15.20;48.70;;;;;;4982256;28;20187;-63
2020/12/06 05:02:27;;;;;;;16.93;10.23;;;15.20;48.50;;;;;;4982601;28;20180;-64
2020/12/06 05:05:00;;;;;;;15.07;10.07;;;15.20;48.60;;;;;;4982619;28;20187;-64
2020/12/06 05:07:28;;;;;;;15.17;9.03;;;15.10;48.60;;;;;;4982360;28;20198;-63
2020/12/06 05:09:56;;;;;;;14.53;8.73;;;15.10;48.70;;;;;;4982296;28;20566;-64
2020/12/06 05:12:21;;;;;;;13.97;9.47;;;15.10;48.70;;;;;;4982736;28;20219;-63
2020/12/06 05:14:47;;;;;;;14.13;10.13;;;15.10;48.80;;;;;;4974300;28;20251;-64
2020/12/06 05:17:14;;;;;;;15.00;10.13;;;15.10;48.60;;;;;;4982538;28;20183;-63
2020/12/06 05:19:40;;;;;;;14.90;11.27;;;15.10;48.80;;;;;;4982060;28;20194;-63
2020/12/06 05:22:07;;;;;;;15.27;11.03;;;15.10;48.90;;;;;;4982203;28;20674;-63
2020/12/06 05:24:34;;;;;;;14.97;10.67;;;15.10;49.00;;;;;;4985723;28;20185;-64
2020/12/06 05:26:59;;;;;;;17.90;10.23;;;15.10;49.00;;;;;;4986286;28;20805;-66
2020/12/06 05:29:25;;;;;;;16.70;9.97;;;15.10;49.10;;;;;;4983588;28;20214;-64
2020/12/06 05:31:51;;;;;;;18.27;10.57;;;15.10;50.10;;;;;;4984287;28;20257;-63
2020/12/06 05:34:19;;;;;;;19.47;9.80;;;15.20;50.00;;;;;;4986289;28;20260;-63
2020/12/06 05:36:44;;;;;;;16.37;9.90;;;15.10;49.70;;;;;;4986216;28;20662;-63
2020/12/06 05:39:10;;;;;;;15.33;9.90;;;15.10;49.40;;;;;;4985762;28;20217;-64
2020/12/06 05:41:36;;;;;;;18.07;9.57;;;15.10;49.70;;;;;;4986507;28;20198;-63
2020/12/06 05:44:04;;;;;;;17.37;10.63;;;15.10;49.50;;;;;;4986305;28;20182;-64
2020/12/06 05:46:33;;;;;;;18.07;11.00;;;15.10;49.60;;;;;;4986117;28;20204;-65
2020/12/06 05:49:01;;;;;;;23.73;13.17;;;15.10;50.10;;;;;;4985386;28;20229;-63
2020/12/06 05:51:27;;;;;;;27.60;15.77;;;15.20;50.80;;;;;;4986210;28;20280;-64
2020/12/06 05:53:55;;;;;;;33.43;20.87;;;15.10;51.20;;;;;;4985613;28;20192;-64
2020/12/06 05:56:21;;;;;;;35.90;23.03;;;15.10;51.50;;;;;;4988763;28;20217;-63
2020/12/06 05:58:49;;;;;;;44.20;26.87;;;15.20;51.70;;;;;;4988009;28;20861;-73
2020/12/06 06:01:17;;;;;;;61.17;35.57;;;15.20;51.30;;;;;;4985074;28;20569;-63
2020/12/06 06:03:47;;;;;;;67.83;38.87;;;15.20;51.20;;;;;;4984098;28;20197;-63
2020/12/06 06:06:20;;;;;;;70.20;44.63;;;15.20;50.90;;;;;;4987791;28;20196;-63
2020/12/06 06:08:48;;;;;;;78.17;46.63;;;15.20;50.40;;;;;;4988434;28;20678;-63
2020/12/06 06:11:28;;;;;;;79.17;45.80;;;15.20;50.30;;;;;;4978732;28;20203;-72
2020/12/06 06:14:01;;;;;;;76.10;44.40;;;15.10;50.30;;;;;;4986888;28;20194;-64
2020/12/06 06:16:29;;;;;;;74.93;44.63;;;15.10;50.40;;;;;;4986998;28;20183;-64
2020/12/06 06:18:59;;;;;;;73.20;46.07;;;15.10;50.90;;;;;;4986878;28;20306;-64
2020/12/06 06:21:31;;;;;;;70.90;45.27;;;15.20;51.60;;;;;;4987717;28;20195;-64
2020/12/06 06:24:00;;;;;;;71.53;44.00;;;15.10;51.70;;;;;;4977769;28;20198;-64
2020/12/06 06:26:30;;;;;;;67.47;43.50;;;15.20;51.70;;;;;;4987640;28;20220;-65
2020/12/06 06:28:55;;;;;;;69.37;42.43;;;15.10;51.90;;;;;;4985935;28;20234;-65
2020/12/06 06:31:21;;;;;;;59.77;36.73;;;15.20;52.00;;;;;;4971492;28;20611;-65
2020/12/06 06:33:49;;;;;;;62.53;38.63;;;15.20;51.90;;;;;;4978561;28;20187;-64
2020/12/06 06:36:19;;;;;;;59.57;36.77;;;15.10;52.00;;;;;;4977640;28;20308;-65
2020/12/06 06:38:45;;;;;;;59.17;34.33;;;15.10;52.10;;;;;;4986574;28;20213;-64
2020/12/06 06:41:12;;;;;;;55.50;35.00;;;15.10;52.30;;;;;;4986885;28;20664;-64
2020/12/06 06:43:39;;;;;;;55.53;32.90;;;15.10;52.30;;;;;;4985679;28;20643;-64
2020/12/06 06:46:30;;;;;;;57.23;36.23;;;15.10;52.40;;;;;;4985349;28;20669;-64
2020/12/06 06:48:57;;;;;;;48.23;31.53;;;15.10;52.30;;;;;;4985418;28;20217;-64
2020/12/06 06:51:24;;;;;;;52.53;30.90;;;15.10;52.10;;;;;;4986235;28;20647;-69
2020/12/06 06:53:55;;;;;;;50.33;30.13;;;15.10;51.50;;;;;;4976660;28;20192;-69
2020/12/06 06:56:21;;;;;;;50.30;29.77;;;15.10;51.40;;;;;;4985208;28;20204;-67
2020/12/06 06:58:49;;;;;;;50.23;29.47;;;15.10;51.20;;;;;;4986255;28;20272;-73
2020/12/06 07:01:15;;;;;;;50.97;28.53;;;15.10;51.10;;;;;;4976936;28;20188;-65
2020/12/06 07:04:17;;;;;;;43.60;26.33;;;15.10;51.20;;;;;;4985421;28;20184;-66
2020/12/06 07:06:47;;;;;;;49.47;26.63;;;15.00;51.20;;;;;;4969946;28;20726;-65
2020/12/06 07:09:35;;;;;;;44.43;25.43;;;15.00;51.30;;;;;;4985352;28;20337;-65
2020/12/06 07:12:01;;;;;;;46.20;26.43;;;15.00;51.10;;;;;;4984885;28;20193;-66
2020/12/06 07:14:28;;;;;;;40.07;25.23;;;15.00;51.00;;;;;;4984786;28;20229;-65
2020/12/06 07:16:56;;;;;;;40.63;22.37;;;15.00;50.90;;;;;;4986037;28;20194;-65
2020/12/06 07:19:22;;;;;;;42.30;23.80;;;15.00;50.80;;;;;;4986119;28;20211;-71
2020/12/06 07:21:49;;;;;;;44.77;24.10;;;15.00;50.80;;;;;;4985272;28;20791;-75
2020/12/06 07:24:17;;;;;;;42.97;24.47;;;15.10;51.60;;;;;;4986069;28;20186;-66
2020/12/06 07:26:44;;;;;;;40.37;23.37;;;15.10;51.50;;;;;;4986813;28;20720;-68
2020/12/06 07:29:10;;;;;;;43.10;22.50;;;15.20;51.70;;;;;;4985000;28;20380;-64
2020/12/06 07:31:36;;;;;;;37.10;22.07;;;15.20;51.50;;;;;;4985323;28;20208;-65
2020/12/06 07:34:03;;;;;;;37.43;22.30;;;15.20;51.10;;;;;;4985359;28;20219;-70
2020/12/06 07:36:36;;;;;;;35.27;22.67;;;15.20;51.40;;;;;;4985667;28;20200;-69
2020/12/06 07:39:22;;;;;;;41.53;25.90;;;15.30;51.50;;;;;;4985708;28;20267;-64
2020/12/06 07:41:49;;;;;;;33.83;25.27;;;15.40;51.80;;;;;;4985110;28;20206;-70
2020/12/06 07:44:16;;;;;;;36.73;24.50;;;15.40;51.40;;;;;;4984740;28;20736;-65
2020/12/06 07:46:42;;;;;;;35.30;23.93;;;15.40;51.50;;;;;;4986133;28;20274;-66
2020/12/06 07:49:09;;;;;;;35.40;20.83;;;15.40;51.10;;;;;;4985152;28;20207;-66
2020/12/06 07:51:35;;;;;;;33.20;21.60;;;15.40;51.40;;;;;;4985786;28;20191;-66
2020/12/06 07:54:02;;;;;;;33.63;20.47;;;15.40;51.70;;;;;;4983694;28;20662;-65
2020/12/06 07:56:29;;;;;;;31.53;18.53;;;15.40;51.60;;;;;;4977042;28;20207;-65
2020/12/06 07:59:22;;;;;;;28.83;17.93;;;15.40;51.60;;;;;;4984528;28;20693;-65
2020/12/06 08:01:49;;;;;;;28.37;17.43;;;15.40;52.00;;;;;;4984640;28;20206;-65
2020/12/06 08:04:22;;;;;;;29.97;16.90;;;15.50;51.60;;;;;;4985471;28;20182;-65
2020/12/06 08:06:50;;;;;;;31.80;17.07;;;15.50;51.20;;;;;;4976638;28;20753;-65
2020/12/06 08:09:17;;;;;;;25.87;15.93;;;15.60;51.20;;;;;;5008985;28;20307;-65
2020/12/06 08:11:49;;;;;;;25.77;16.47;;;15.60;50.60;;;;;;4985466;28;20191;-65
2020/12/06 08:14:20;;;;;;;26.87;16.77;;;15.60;50.80;;;;;;4977657;28;20180;-66
2020/12/06 08:17:15;;;;;;;26.47;17.20;;;15.60;50.90;;;;;;4979337;28;20231;-67
2020/12/06 08:19:42;;;;;;;26.87;15.83;;;15.70;50.20;;;;;;4975572;28;20278;-68
2020/12/06 08:22:07;;;;;;;27.00;14.07;;;15.50;49.40;;;;;;4985765;28;20593;-68
2020/12/06 08:24:33;;;;;;;21.33;14.63;;;15.40;49.00;;;;;;4985305;28;20189;-63
2020/12/06 08:27:00;;;;;;;20.50;13.03;;;15.40;50.70;;;;;;4984792;28;20604;-62
2020/12/06 08:29:43;;;;;;;21.77;12.60;;;15.50;51.80;;;;;;4984005;28;20751;-63
2020/12/06 08:32:09;;;;;;;20.80;12.13;;;15.60;51.40;;;;;;4984713;28;20207;-64
2020/12/06 08:34:35;;;;;;;21.00;12.50;;;15.60;51.00;;;;;;4984921;28;20207;-64
2020/12/06 08:37:18;;;;;;;22.80;13.53;;;15.70;51.40;;;;;;4976064;28;20213;-64
2020/12/06 08:39:45;;;;;;;25.10;15.38;;;15.70;51.30;;;;;;4985311;28;20413;-64
2020/12/06 08:42:20;;;;;;;21.63;16.40;;;15.70;51.10;;;;;;4986318;28;20252;-68
2020/12/06 08:44:56;;;;;;;24.70;16.03;;;15.80;51.90;;;;;;4983788;28;20196;-69
2020/12/06 08:47:22;;;;;;;21.10;14.33;;;15.80;51.00;;;;;;4982141;28;20227;-68
2020/12/06 08:50:00;;;;;;;20.53;13.00;;;15.80;50.70;;;;;;4982468;28;20680;-70
2020/12/06 08:52:26;;;;;;;19.17;12.90;;;15.80;50.50;;;;;;4986163;28;20207;-62
2020/12/06 08:54:52;;;;;;;19.33;11.70;;;15.90;50.60;;;;;;4977591;28;20214;-70
2020/12/06 08:57:19;;;;;;;23.77;12.87;;;15.90;50.70;;;;;;4985428;28;20199;-70
2020/12/06 08:59:45;;;;;;;19.93;12.17;;;15.90;51.00;;;;;;4985568;28;20971;-63
2020/12/06 09:02:20;;;;;;;20.20;12.30;;;15.90;50.40;;;;;;4986015;28;20184;-63
2020/12/06 09:04:46;;;;;;;19.50;13.13;;;16.00;50.80;;;;;;4986009;28;20193;-63
2020/12/06 09:07:12;;;;;;;19.83;12.83;;;16.00;50.70;;;;;;4984792;28;20557;-63
2020/12/06 09:09:37;;;;;;;21.90;13.33;;;16.00;50.20;;;;;;4985407;28;20219;-63
2020/12/06 09:12:03;;;;;;;25.20;12.57;;;16.00;50.30;;;;;;4984506;28;20193;-63
2020/12/06 09:14:29;;;;;;;28.20;13.40;;;16.10;50.20;;;;;;4977203;28;20212;-63
2020/12/06 09:16:54;;;;;;;24.20;13.30;;;16.10;50.10;;;;;;4985795;28;20617;-63
2020/12/06 09:19:20;;;;;;;24.60;13.73;;;16.20;50.00;;;;;;4984506;28;20306;-63
2020/12/06 09:21:45;;;;;;;21.87;13.07;;;16.20;50.00;;;;;;4983994;28;20196;-63
2020/12/06 09:24:11;;;;;;;25.10;14.83;;;16.20;49.80;;;;;;4985611;28;20220;-65
2020/12/06 09:26:38;;;;;;;21.35;14.27;;;16.30;49.80;;;;;;4977139;28;20196;-63
2020/12/06 09:29:04;;;;;;;20.47;14.67;;;16.30;49.70;;;;;;4984882;28;20515;-62
2020/12/06 09:31:29;;;;;;;21.27;14.17;;;16.30;49.10;;;;;;4977035;28;20796;-63
2020/12/06 09:33:56;;;;;;;19.73;13.77;;;16.30;49.50;;;;;;4985517;28;20776;-62
2020/12/06 09:36:22;;;;;;;21.92;14.23;;;16.30;49.40;;;;;;4984673;28;20297;-63
2020/12/06 09:38:48;;;;;;;19.03;13.77;;;16.30;49.90;;;;;;4984838;28;20208;-63
2020/12/06 09:41:14;;;;;;;17.75;12.50;;;16.30;49.20;;;;;;4980318;28;20182;-63
2020/12/06 09:43:41;;;;;;;17.53;11.90;;;16.30;49.40;;;;;;4972048;28;20187;-62
2020/12/06 09:46:08;;;;;;;19.57;13.10;;;16.40;49.60;;;;;;4985016;28;20189;-63
2020/12/06 09:48:35;;;;;;;17.03;11.80;;;16.40;49.70;;;;;;4984526;28;20497;-63
2020/12/06 09:51:00;;;;;;;17.93;12.27;;;16.40;49.80;;;;;;4983666;28;20205;-60
2020/12/06 09:53:26;;;;;;;18.13;12.17;;;16.40;49.60;;;;;;4984626;28;20201;-60
2020/12/06 09:55:52;;;;;;;16.83;11.93;;;16.40;49.80;;;;;;4984248;28;20212;-60
2020/12/06 09:58:17;;;;;;;15.63;10.70;;;16.40;49.30;;;;;;4983967;28;20205;-60
2020/12/06 10:00:43;;;;;;;15.80;11.07;;;16.40;49.80;;;;;;4984443;28;20244;-60
2020/12/06 10:03:09;;;;;;;15.63;11.10;;;16.50;49.80;;;;;;4984363;28;20202;-61
2020/12/06 10:05:34;;;;;;;15.13;10.77;;;16.50;49.60;;;;;;4984910;28;20205;-60
2020/12/06 10:08:00;;;;;;;15.73;10.55;;;16.50;49.40;;;;;;4983965;28;20217;-66
2020/12/06 10:10:26;;;;;;;14.10;11.00;;;16.50;49.30;;;;;;4986513;28;20793;-60
2020/12/06 10:12:51;;;;;;;17.87;11.10;;;16.60;50.10;;;;;;4988052;28;20749;-60
2020/12/06 10:15:17;;;;;;;17.38;10.25;;;16.60;49.80;;;;;;4988242;28;20833;-60
2020/12/06 10:17:43;;;;;;;16.37;10.97;;;16.60;50.00;;;;;;4988229;28;20248;-60
2020/12/06 10:20:08;;;;;;;14.93;9.27;;;16.70;50.40;;;;;;4987546;28;20188;-61
2020/12/06 10:22:34;;;;;;;14.13;9.50;;;16.70;50.20;;;;;;4988649;28;20212;-60
2020/12/06 10:25:00;;;;;;;15.00;10.02;;;16.70;50.20;;;;;;4988550;28;20676;-60
2020/12/06 10:27:26;;;;;;;16.20;10.10;;;16.70;50.80;;;;;;4987041;28;20199;-60
2020/12/06 10:29:52;;;;;;;14.75;9.15;;;16.80;51.20;;;;;;4987934;28;20216;-60
2020/12/06 10:32:18;;;;;;;16.52;9.82;;;16.80;51.60;;;;;;4987758;28;20260;-60
2020/12/06 10:34:44;;;;;;;15.52;8.82;;;16.80;51.60;;;;;;4987935;28;20860;-60
2020/12/06 10:37:09;;;;;;;12.32;9.27;;;16.90;50.60;;;;;;4987904;28;20661;-73
2020/12/06 10:39:35;;;;;;;14.98;9.50;;;16.90;50.30;;;;;;4987102;28;20253;-61
2020/12/06 10:42:01;;;;;;;13.73;9.07;;;16.90;50.10;;;;;;4987623;28;20189;-60
2020/12/06 10:44:27;;;;;;;13.55;9.32;;;16.90;49.90;;;;;;4987512;28;20200;-61
2020/12/06 10:46:53;;;;;;;14.80;8.70;;;17.00;49.90;;;;;;4987418;28;20217;-66
2020/12/06 10:49:20;;;;;;;13.75;9.07;;;16.90;49.90;;;;;;4986478;28;20237;-67
2020/12/06 10:51:48;;;;;;;11.00;8.18;;;17.00;50.10;;;;;;4986329;28;20676;-66
2020/12/06 10:54:14;;;;;;;14.48;9.38;;;17.00;49.80;;;;;;4985661;28;20186;-63
2020/12/06 10:56:41;;;;;;;15.27;8.20;;;17.00;49.70;;;;;;4984176;28;20650;-64
2020/12/06 10:59:07;;;;;;;13.68;8.55;;;17.10;49.80;;;;;;4984777;28;20706;-64
2020/12/06 11:01:34;;;;;;;16.15;9.23;;;17.10;49.50;;;;;;4985059;28;20193;-63
2020/12/06 11:04:02;;;;;;;14.32;9.38;;;17.10;49.40;;;;;;4983319;28;20547;-64
2020/12/06 11:06:28;;;;;;;16.75;9.05;;;17.10;49.40;;;;;;4979829;28;20205;-63
2020/12/06 11:08:54;;;;;;;12.45;8.98;;;17.10;49.50;;;;;;4984846;28;20260;-63
2020/12/06 11:14:10;;;;;;;12.45;8.10;;;17.10;49.40;;;;;;5387328;23;20434;-66
2020/12/06 11:16:35;;;;;;;13.85;8.80;;;17.10;49.40;;;;;;4990154;28;20605;-65
2020/12/06 11:19:01;;;;;;;13.40;9.40;;;17.10;49.30;;;;;;5001173;28;20184;-65
2020/12/06 11:21:27;;;;;;;13.70;8.45;;;17.10;49.30;;;;;;5002092;28;20268;-65
2020/12/06 11:23:55;;;;;;;12.63;7.95;;;17.20;49.40;;;;;;4970413;28;20206;-65
2020/12/06 11:26:21;;;;;;;12.73;8.07;;;17.20;49.30;;;;;;4983521;28;20720;-65
2020/12/06 11:28:46;;;;;;;11.85;7.97;;;17.20;49.20;;;;;;4982087;28;20200;-65
2020/12/06 11:31:13;;;;;;;11.85;7.78;;;17.20;49.20;;;;;;4984009;28;20987;-64
2020/12/06 11:33:39;;;;;;;10.98;7.55;;;17.20;49.10;;;;;;4976346;28;20210;-65
2020/12/06 11:36:05;;;;;;;9.30;6.93;;;17.20;49.30;;;;;;4981452;28;20688;-65
2020/12/06 11:38:31;;;;;;;10.43;7.45;;;17.20;49.20;;;;;;4983186;28;20221;-65
2020/12/06 11:40:58;;;;;;;12.00;7.70;;;17.20;49.30;;;;;;4982968;28;20288;-65
2020/12/06 11:43:23;;;;;;;12.55;7.90;;;17.20;49.10;;;;;;4982359;28;20209;-66
2020/12/06 11:45:50;;;;;;;13.10;7.57;;;17.20;49.20;;;;;;4982624;28;20929;-68
2020/12/06 11:48:16;;;;;;;14.25;8.25;;;17.20;48.70;;;;;;4981374;28;20194;-67
2020/12/06 11:50:41;;;;;;;11.15;7.30;;;17.20;50.50;;;;;;4981680;28;20537;-65
2020/12/06 11:53:07;;;;;;;12.68;6.70;;;17.20;50.60;;;;;;4983390;28;20488;-69
2020/12/06 11:55:33;;;;;;;14.07;7.57;;;17.20;50.90;;;;;;4968255;28;20269;-69
2020/12/06 11:57:58;;;;;;;10.63;7.30;;;17.20;51.10;;;;;;4980421;28;20193;-67
2020/12/06 12:00:24;;;;;;;12.57;7.10;;;17.30;50.70;;;;;;4981860;28;20236;-69
2020/12/06 12:02:50;;;;;;;11.07;6.72;;;17.30;50.80;;;;;;4981505;28;20214;-69
2020/12/06 12:05:15;;;;;;;11.20;6.35;;;17.30;50.30;;;;;;4981800;28;20194;-68
2020/12/06 12:07:42;;;;;;;11.65;6.90;;;17.40;50.50;;;;;;4981756;28;20186;-68
2020/12/06 12:10:08;;;;;;;17.23;8.07;;;17.40;50.50;;;;;;4980759;28;20189;-68
2020/12/06 12:12:35;;;;;;;15.27;8.10;;;17.40;50.60;;;;;;4981013;28;20200;-68
2020/12/06 12:15:01;;;;;;;11.73;7.18;;;17.40;51.40;;;;;;4980839;28;21010;-67
2020/12/06 12:17:27;;;;;;;13.30;7.43;;;17.40;51.40;;;;;;4979932;28;20178;-66
2020/12/06 12:19:52;;;;;;;12.73;7.72;;;17.50;51.70;;;;;;4980663;28;20201;-69
2020/12/06 12:22:20;;;;;;;15.20;7.35;;;17.40;51.90;;;;;;4981166;28;20193;-66
2020/12/06 12:24:48;;;;;;;12.55;6.32;;;17.50;51.30;;;;;;4981652;28;20230;-66
2020/12/06 12:27:13;;;;;;;11.82;7.50;;;17.50;51.40;;;;;;4981071;28;20205;-66
2020/12/06 12:29:39;;;;;;;12.63;7.57;;;17.40;50.40;;;;;;4981328;28;20417;-66
2020/12/06 12:32:05;;;;;;;11.68;7.40;;;17.40;50.80;;;;;;4980928;28;20504;-66
2020/12/06 12:34:30;;;;;;;10.05;7.15;;;17.50;50.60;;;;;;4980391;28;20233;-66
2020/12/06 12:36:56;;;;;;;9.68;6.68;;;17.50;50.20;;;;;;4981518;28;20231;-66